createdAt,value
2022-10-17T17:41:34.473Z,43.77
2022-10-17T17:44:19.590Z,43.98
2022-10-17T17:46:48.729Z,44.12
2022-10-17T17:49:17.164Z,44.46
2022-10-17T17:51:47.217Z,44.78
2022-10-17T17:54:16.510Z,45.16
2022-10-17T17:56:46.349Z,45.48
2022-10-17T17:59:18.917Z,45.54
2022-10-17T18:01:52.712Z,45.75
2022-10-17T18:04:20.994Z,45.95
2022-10-17T18:06:49.379Z,46.34
2022-10-17T18:09:18.150Z,46.42
2022-10-17T18:11:48.073Z,46.64
2022-10-17T18:14:19.339Z,46.74
2022-10-17T18:16:47.899Z,47.08
2022-10-17T18:22:12.107Z,47.40
2022-10-17T18:24:48.682Z,47.65
2022-10-17T18:27:18.576Z,47.80
2022-10-17T18:29:47.059Z,48.00
2022-10-17T18:32:15.770Z,48.01
2022-10-17T18:34:44.271Z,47.96
2022-10-17T18:37:12.521Z,48.30
2022-10-17T18:39:40.699Z,48.74
2022-10-17T18:42:12.086Z,48.76
2022-10-17T18:44:41.699Z,48.84
2022-10-17T18:47:10.834Z,48.86
2022-10-17T18:49:39.020Z,49.11
2022-10-17T18:52:07.284Z,49.43
2022-10-17T18:54:35.745Z,49.44
2022-10-17T18:57:04.222Z,49.74
2022-10-17T18:59:32.819Z,49.63
2022-10-17T19:02:02.920Z,49.80
2022-10-17T19:04:31.178Z,49.74
2022-10-17T19:06:59.344Z,49.74
2022-10-17T19:09:27.625Z,49.88
2022-10-17T19:11:56.568Z,49.78
2022-10-17T19:14:27.846Z,49.80
2022-10-17T19:16:58.211Z,50.07
2022-10-17T19:19:28.298Z,50.11
2022-10-17T19:21:56.784Z,50.17
2022-10-17T19:24:29.728Z,50.40
2022-10-17T19:27:06.243Z,50.52
2022-10-17T19:29:34.318Z,50.71
2022-10-17T19:37:58.934Z,50.89
2022-10-17T19:40:29.076Z,51.21
2022-10-17T19:43:01.028Z,51.24
2022-10-17T19:45:29.812Z,51.26
2022-10-17T19:47:59.325Z,51.30
2022-10-17T19:50:36.717Z,51.57
2022-10-17T19:53:07.807Z,51.27
2022-10-17T19:55:36.339Z,51.64
2022-10-17T19:58:05.710Z,51.62
2022-10-17T20:00:33.975Z,51.92
2022-10-17T20:03:02.653Z,51.83
2022-10-17T20:05:32.606Z,52.13
2022-10-17T20:08:01.059Z,51.98
2022-10-17T20:10:30.154Z,52.15
2022-10-17T20:12:58.525Z,52.29
2022-10-17T20:15:26.794Z,52.13
2022-10-17T20:17:55.107Z,52.34
2022-10-17T20:20:23.379Z,52.27
2022-10-17T20:22:54.000Z,52.32
2022-10-17T20:25:24.307Z,52.23
2022-10-17T20:27:52.713Z,52.22
2022-10-17T20:30:21.374Z,52.39
2022-10-17T20:32:55.258Z,52.41
2022-10-17T20:35:23.922Z,52.59
2022-10-17T20:37:54.123Z,52.58
2022-10-17T20:40:34.803Z,52.59
2022-10-17T20:43:04.079Z,52.91
2022-10-17T20:45:44.267Z,52.63
2022-10-17T20:48:19.853Z,52.59
2022-10-17T20:50:48.034Z,52.57
2022-10-17T20:53:35.917Z,52.71
2022-10-17T20:56:06.808Z,52.72
2022-10-17T20:58:35.391Z,52.87
2022-10-17T21:01:08.663Z,52.84
2022-10-17T21:03:39.869Z,52.81
2022-10-17T21:06:11.609Z,52.81
2022-10-17T21:08:41.449Z,52.80
2022-10-17T21:11:12.055Z,53.04
2022-10-17T21:13:40.974Z,52.75
2022-10-17T21:16:11.220Z,52.88
2022-10-17T21:18:40.328Z,52.93
2022-10-17T21:21:10.888Z,53.01
2022-10-17T21:23:41.476Z,52.88
2022-10-17T21:26:10.453Z,52.94
2022-10-17T21:28:40.365Z,52.98
2022-10-17T21:31:13.719Z,52.78
2022-10-17T21:33:43.421Z,53.04
2022-10-17T21:36:12.112Z,52.95
2022-10-17T21:38:42.437Z,53.10
2022-10-17T21:41:11.836Z,53.20
2022-10-17T21:43:40.765Z,53.35
2022-10-17T21:46:13.675Z,53.23
2022-10-17T21:48:42.409Z,53.08
2022-10-17T21:51:13.035Z,53.51
2022-10-17T21:53:43.576Z,53.41
2022-10-17T21:56:13.677Z,53.35
2022-10-17T21:58:42.161Z,53.29
2022-10-17T22:01:12.672Z,53.42
2022-10-17T22:03:45.849Z,53.41
2022-10-17T22:09:10.094Z,53.48
2022-10-17T22:11:38.561Z,53.56
2022-10-17T22:14:12.004Z,53.53
2022-10-17T22:16:40.953Z,53.48
2022-10-17T22:19:10.455Z,53.45
2022-10-17T22:21:39.150Z,53.52
2022-10-17T22:24:12.023Z,53.46
2022-10-17T22:26:40.817Z,53.37
2022-10-17T22:29:11.346Z,53.41
2022-10-17T22:31:39.643Z,53.42
2022-10-17T22:34:08.516Z,53.35
2022-10-17T22:36:37.151Z,53.25
2022-10-17T22:39:06.922Z,53.58
2022-10-17T22:41:37.524Z,53.26
2022-10-17T22:44:06.543Z,53.53
2022-10-17T22:46:34.562Z,53.50
2022-10-17T22:49:02.843Z,53.42
2022-10-17T22:51:31.422Z,53.53
2022-10-17T22:56:46.718Z,53.57
2022-10-17T22:59:15.560Z,53.70
2022-10-17T23:01:43.692Z,53.75
2022-10-17T23:04:12.167Z,53.62
2022-10-17T23:06:40.232Z,53.89
2022-10-17T23:09:08.435Z,53.76
2022-10-17T23:11:36.523Z,53.68
2022-10-17T23:14:06.103Z,53.86
2022-10-17T23:16:34.305Z,53.72
2022-10-17T23:19:02.295Z,53.78
2022-10-17T23:21:30.557Z,53.83
2022-10-17T23:23:58.670Z,53.92
2022-10-17T23:26:26.668Z,53.77
2022-10-17T23:28:56.041Z,53.87
2022-10-17T23:31:25.756Z,53.76
2022-10-17T23:33:54.045Z,54.02
2022-10-17T23:36:22.702Z,53.88
2022-10-17T23:38:52.750Z,53.99
2022-10-17T23:41:23.626Z,53.94
2022-10-17T23:43:51.786Z,53.71
2022-10-17T23:46:19.986Z,53.80
2022-10-17T23:48:49.802Z,53.86
2022-10-17T23:51:18.250Z,53.87
2022-10-17T23:53:46.407Z,53.70
2022-10-17T23:56:14.806Z,53.86
2022-10-17T23:58:42.927Z,53.69
